sensor_id;sensor_type;location;lat;lon;timestamp;P1;durP1;ratioP1;P2;durP2;ratioP2
15102;SDS011;7652;53.584;9.998;2023-11-19T00:00:40;9.03;;;7.00;;
15102;SDS011;7652;53.584;9.998;2023-11-19T00:04:12;8.20;;;6.43;;
15102;SDS011;7652;53.584;9.998;2023-11-19T00:07:35;8.47;;;6.53;;
15102;SDS011;7652;53.584;9.998;2023-11-19T00:10:57;7.83;;;6.43;;
15102;SDS011;7652;53.584;9.998;2023-11-19T00:14:20;8.63;;;6.37;;
15102;SDS011;7652;53.584;9.998;2023-11-19T00:17:41;9.53;;;5.97;;
15102;SDS011;7652;53.584;9.998;2023-11-19T00:21:05;7.77;;;6.20;;
15102;SDS011;7652;53.584;9.998;2023-11-19T00:24:28;7.47;;;5.70;;
15102;SDS011;7652;53.584;9.998;2023-11-19T00:27:50;7.30;;;5.97;;
15102;SDS011;7652;53.584;9.998;2023-11-19T00:31:15;7.47;;;5.70;;
15102;SDS011;7652;53.584;9.998;2023-11-19T00:34:36;5.80;;;5.10;;
15102;SDS011;7652;53.584;9.998;2023-11-19T00:37:58;6.37;;;4.83;;
15102;SDS011;7652;53.584;9.998;2023-11-19T00:41:20;6.50;;;5.03;;
15102;SDS011;7652;53.584;9.998;2023-11-19T00:44:42;6.07;;;4.70;;
15102;SDS011;7652;53.584;9.998;2023-11-19T00:48:11;5.17;;;4.60;;
15102;SDS011;7652;53.584;9.998;2023-11-19T00:51:33;5.13;;;4.23;;
15102;SDS011;7652;53.584;9.998;2023-11-19T00:54:54;5.90;;;4.40;;
15102;SDS011;7652;53.584;9.998;2023-11-19T00:58:17;4.50;;;4.10;;
15102;SDS011;7652;53.584;9.998;2023-11-19T01:01:38;5.13;;;4.60;;
15102;SDS011;7652;53.584;9.998;2023-11-19T01:05:01;4.37;;;3.97;;
15102;SDS011;7652;53.584;9.998;2023-11-19T01:08:24;4.53;;;3.83;;
15102;SDS011;7652;53.584;9.998;2023-11-19T01:11:45;4.53;;;3.80;;
15102;SDS011;7652;53.584;9.998;2023-11-19T01:15:07;3.60;;;3.30;;
15102;SDS011;7652;53.584;9.998;2023-11-19T01:18:29;3.90;;;3.37;;
15102;SDS011;7652;53.584;9.998;2023-11-19T01:21:53;3.30;;;3.00;;
15102;SDS011;7652;53.584;9.998;2023-11-19T01:25:15;4.00;;;3.20;;
15102;SDS011;7652;53.584;9.998;2023-11-19T01:28:37;3.60;;;3.00;;
15102;SDS011;7652;53.584;9.998;2023-11-19T01:32:11;3.13;;;2.83;;
15102;SDS011;7652;53.584;9.998;2023-11-19T01:35:32;4.10;;;3.70;;
15102;SDS011;7652;53.584;9.998;2023-11-19T01:38:55;2.80;;;2.60;;
15102;SDS011;7652;53.584;9.998;2023-11-19T01:42:17;3.90;;;3.20;;
15102;SDS011;7652;53.584;9.998;2023-11-19T01:45:38;4.13;;;3.27;;
15102;SDS011;7652;53.584;9.998;2023-11-19T01:49:01;3.43;;;3.03;;
15102;SDS011;7652;53.584;9.998;2023-11-19T01:52:23;4.10;;;2.97;;
15102;SDS011;7652;53.584;9.998;2023-11-19T01:55:48;2.77;;;2.57;;
15102;SDS011;7652;53.584;9.998;2023-11-19T01:59:12;2.60;;;2.40;;
15102;SDS011;7652;53.584;9.998;2023-11-19T02:02:34;2.60;;;2.40;;
15102;SDS011;7652;53.584;9.998;2023-11-19T02:05:56;2.03;;;1.93;;
15102;SDS011;7652;53.584;9.998;2023-11-19T02:09:18;2.00;;;1.90;;
15102;SDS011;7652;53.584;9.998;2023-11-19T02:12:42;3.50;;;2.00;;
15102;SDS011;7652;53.584;9.998;2023-11-19T02:16:05;2.23;;;2.03;;
15102;SDS011;7652;53.584;9.998;2023-11-19T02:19:29;2.00;;;1.90;;
15102;SDS011;7652;53.584;9.998;2023-11-19T02:22:51;2.20;;;1.70;;
15102;SDS011;7652;53.584;9.998;2023-11-19T02:26:14;1.93;;;1.80;;
15102;SDS011;7652;53.584;9.998;2023-11-19T02:29:40;2.23;;;2.03;;
15102;SDS011;7652;53.584;9.998;2023-11-19T02:33:02;2.23;;;2.03;;
15102;SDS011;7652;53.584;9.998;2023-11-19T02:36:25;1.90;;;1.80;;
15102;SDS011;7652;53.584;9.998;2023-11-19T02:39:46;1.30;;;1.20;;
15102;SDS011;7652;53.584;9.998;2023-11-19T02:43:08;1.90;;;1.80;;
15102;SDS011;7652;53.584;9.998;2023-11-19T02:46:31;2.70;;;1.70;;
15102;SDS011;7652;53.584;9.998;2023-11-19T02:49:53;2.13;;;1.93;;
15102;SDS011;7652;53.584;9.998;2023-11-19T02:53:14;2.57;;;2.17;;
15102;SDS011;7652;53.584;9.998;2023-11-19T02:56:37;1.90;;;1.80;;
15102;SDS011;7652;53.584;9.998;2023-11-19T03:00:03;2.27;;;2.07;;
15102;SDS011;7652;53.584;9.998;2023-11-19T03:03:33;1.90;;;1.80;;
15102;SDS011;7652;53.584;9.998;2023-11-19T03:06:58;2.03;;;1.90;;
15102;SDS011;7652;53.584;9.998;2023-11-19T03:10:20;2.13;;;1.93;;
15102;SDS011;7652;53.584;9.998;2023-11-19T03:13:41;2.20;;;2.00;;
15102;SDS011;7652;53.584;9.998;2023-11-19T03:17:03;2.57;;;2.30;;
15102;SDS011;7652;53.584;9.998;2023-11-19T03:20:26;2.40;;;2.20;;
15102;SDS011;7652;53.584;9.998;2023-11-19T03:23:50;7.50;;;3.17;;
15102;SDS011;7652;53.584;9.998;2023-11-19T03:27:11;1.90;;;1.80;;
15102;SDS011;7652;53.584;9.998;2023-11-19T03:30:35;2.20;;;2.00;;
15102;SDS011;7652;53.584;9.998;2023-11-19T03:33:57;1.90;;;1.80;;
15102;SDS011;7652;53.584;9.998;2023-11-19T03:37:20;2.17;;;1.90;;
15102;SDS011;7652;53.584;9.998;2023-11-19T03:40:41;2.43;;;2.23;;
15102;SDS011;7652;53.584;9.998;2023-11-19T03:44:03;2.30;;;2.10;;
15102;SDS011;7652;53.584;9.998;2023-11-19T03:47:25;2.30;;;2.20;;
15102;SDS011;7652;53.584;9.998;2023-11-19T03:50:46;3.40;;;3.10;;
15102;SDS011;7652;53.584;9.998;2023-11-19T03:54:10;3.20;;;3.00;;
15102;SDS011;7652;53.584;9.998;2023-11-19T03:57:32;3.50;;;3.20;;
15102;SDS011;7652;53.584;9.998;2023-11-19T04:00:53;4.00;;;3.40;;
15102;SDS011;7652;53.584;9.998;2023-11-19T04:04:15;3.47;;;3.17;;
15102;SDS011;7652;53.584;9.998;2023-11-19T04:07:36;3.73;;;3.43;;
15102;SDS011;7652;53.584;9.998;2023-11-19T04:10:59;4.13;;;3.60;;
15102;SDS011;7652;53.584;9.998;2023-11-19T04:14:21;3.87;;;3.57;;
15102;SDS011;7652;53.584;9.998;2023-11-19T04:17:43;3.77;;;3.40;;
15102;SDS011;7652;53.584;9.998;2023-11-19T04:21:05;4.30;;;3.90;;
15102;SDS011;7652;53.584;9.998;2023-11-19T04:24:27;4.97;;;4.47;;
15102;SDS011;7652;53.584;9.998;2023-11-19T04:27:50;5.13;;;4.47;;
15102;SDS011;7652;53.584;9.998;2023-11-19T04:31:12;5.87;;;4.47;;
15102;SDS011;7652;53.584;9.998;2023-11-19T04:34:36;6.30;;;4.87;;
15102;SDS011;7652;53.584;9.998;2023-11-19T04:37:57;7.07;;;5.70;;
15102;SDS011;7652;53.584;9.998;2023-11-19T04:41:19;5.80;;;5.20;;
15102;SDS011;7652;53.584;9.998;2023-11-19T04:44:42;8.23;;;5.90;;
15102;SDS011;7652;53.584;9.998;2023-11-19T04:48:04;7.97;;;5.83;;
15102;SDS011;7652;53.584;9.998;2023-11-19T04:51:25;7.07;;;5.67;;
15102;SDS011;7652;53.584;9.998;2023-11-19T04:54:47;7.63;;;5.73;;
15102;SDS011;7652;53.584;9.998;2023-11-19T04:58:09;8.60;;;6.03;;
15102;SDS011;7652;53.584;9.998;2023-11-19T05:01:31;6.80;;;5.70;;
15102;SDS011;7652;53.584;9.998;2023-11-19T05:04:53;6.77;;;5.20;;
15102;SDS011;7652;53.584;9.998;2023-11-19T05:08:15;6.03;;;5.17;;
15102;SDS011;7652;53.584;9.998;2023-11-19T05:11:36;6.20;;;5.50;;
15102;SDS011;7652;53.584;9.998;2023-11-19T05:15:10;5.63;;;5.13;;
15102;SDS011;7652;53.584;9.998;2023-11-19T05:18:34;6.73;;;4.87;;
15102;SDS011;7652;53.584;9.998;2023-11-19T05:21:55;5.70;;;5.20;;
15102;SDS011;7652;53.584;9.998;2023-11-19T05:25:17;5.90;;;5.30;;
15102;SDS011;7652;53.584;9.998;2023-11-19T05:28:40;5.73;;;5.23;;
15102;SDS011;7652;53.584;9.998;2023-11-19T05:32:01;8.07;;;5.63;;
15102;SDS011;7652;53.584;9.998;2023-11-19T05:35:25;5.77;;;5.27;;
15102;SDS011;7652;53.584;9.998;2023-11-19T05:38:46;6.80;;;6.10;;
15102;SDS011;7652;53.584;9.998;2023-11-19T05:42:08;10.87;;;7.00;;
15102;SDS011;7652;53.584;9.998;2023-11-19T05:45:30;9.57;;;7.10;;
15102;SDS011;7652;53.584;9.998;2023-11-19T05:48:52;18.20;;;10.20;;
15102;SDS011;7652;53.584;9.998;2023-11-19T05:52:15;20.77;;;10.60;;
15102;SDS011;7652;53.584;9.998;2023-11-19T05:55:37;19.43;;;12.37;;
15102;SDS011;7652;53.584;9.998;2023-11-19T05:59:06;23.43;;;13.13;;
15102;SDS011;7652;53.584;9.998;2023-11-19T06:02:35;25.57;;;13.90;;
15102;SDS011;7652;53.584;9.998;2023-11-19T06:05:57;22.83;;;13.47;;
15102;SDS011;7652;53.584;9.998;2023-11-19T06:09:20;24.83;;;14.20;;
15102;SDS011;7652;53.584;9.998;2023-11-19T06:12:42;26.30;;;15.77;;
15102;SDS011;7652;53.584;9.998;2023-11-19T06:16:06;22.00;;;13.80;;
15102;SDS011;7652;53.584;9.998;2023-11-19T06:19:28;28.33;;;14.57;;
15102;SDS011;7652;53.584;9.998;2023-11-19T06:22:50;25.13;;;13.90;;
15102;SDS011;7652;53.584;9.998;2023-11-19T06:26:13;25.60;;;14.70;;
15102;SDS011;7652;53.584;9.998;2023-11-19T06:29:34;30.30;;;13.60;;
15102;SDS011;7652;53.584;9.998;2023-11-19T06:32:56;27.20;;;13.83;;
15102;SDS011;7652;53.584;9.998;2023-11-19T06:36:18;24.50;;;13.00;;
15102;SDS011;7652;53.584;9.998;2023-11-19T06:39:39;30.43;;;12.93;;
15102;SDS011;7652;53.584;9.998;2023-11-19T06:43:02;32.63;;;13.77;;
15102;SDS011;7652;53.584;9.998;2023-11-19T06:46:24;21.60;;;11.00;;
15102;SDS011;7652;53.584;9.998;2023-11-19T06:49:45;25.23;;;11.30;;
15102;SDS011;7652;53.584;9.998;2023-11-19T06:53:07;25.60;;;11.57;;
15102;SDS011;7652;53.584;9.998;2023-11-19T06:56:30;25.03;;;10.27;;
15102;SDS011;7652;53.584;9.998;2023-11-19T06:59:53;22.33;;;10.37;;
15102;SDS011;7652;53.584;9.998;2023-11-19T07:03:15;26.00;;;10.70;;
15102;SDS011;7652;53.584;9.998;2023-11-19T07:06:37;19.07;;;9.27;;
15102;SDS011;7652;53.584;9.998;2023-11-19T07:09:59;24.83;;;9.13;;
15102;SDS011;7652;53.584;9.998;2023-11-19T07:13:21;23.63;;;7.83;;
15102;SDS011;7652;53.584;9.998;2023-11-19T07:16:44;22.17;;;7.73;;
15102;SDS011;7652;53.584;9.998;2023-11-19T07:20:06;20.00;;;6.67;;
15102;SDS011;7652;53.584;9.998;2023-11-19T07:23:29;21.37;;;7.00;;
15102;SDS011;7652;53.584;9.998;2023-11-19T07:26:50;26.77;;;7.37;;
15102;SDS011;7652;53.584;9.998;2023-11-19T07:30:12;24.87;;;7.37;;
15102;SDS011;7652;53.584;9.998;2023-11-19T07:33:35;16.87;;;6.20;;
15102;SDS011;7652;53.584;9.998;2023-11-19T07:36:57;17.37;;;4.67;;
15102;SDS011;7652;53.584;9.998;2023-11-19T07:40:22;16.00;;;4.63;;
15102;SDS011;7652;53.584;9.998;2023-11-19T07:43:46;20.90;;;4.87;;
15102;SDS011;7652;53.584;9.998;2023-11-19T07:47:07;17.60;;;4.97;;
15102;SDS011;7652;53.584;9.998;2023-11-19T07:50:30;21.53;;;4.67;;
15102;SDS011;7652;53.584;9.998;2023-11-19T07:53:51;25.47;;;4.87;;
15102;SDS011;7652;53.584;9.998;2023-11-19T07:57:13;18.97;;;4.83;;
15102;SDS011;7652;53.584;9.998;2023-11-19T08:00:34;20.23;;;5.40;;
15102;SDS011;7652;53.584;9.998;2023-11-19T08:03:57;26.80;;;6.00;;
15102;SDS011;7652;53.584;9.998;2023-11-19T08:07:21;22.00;;;5.33;;
15102;SDS011;7652;53.584;9.998;2023-11-19T08:10:42;22.80;;;5.73;;
15102;SDS011;7652;53.584;9.998;2023-11-19T08:14:04;20.20;;;5.37;;
15102;SDS011;7652;53.584;9.998;2023-11-19T08:17:25;22.40;;;4.80;;
15102;SDS011;7652;53.584;9.998;2023-11-19T08:20:47;27.10;;;5.67;;
15102;SDS011;7652;53.584;9.998;2023-11-19T08:24:13;18.50;;;4.33;;
15102;SDS011;7652;53.584;9.998;2023-11-19T08:27:35;23.33;;;5.37;;
15102;SDS011;7652;53.584;9.998;2023-11-19T08:30:56;21.50;;;4.83;;
15102;SDS011;7652;53.584;9.998;2023-11-19T08:34:18;20.77;;;4.80;;
15102;SDS011;7652;53.584;9.998;2023-11-19T08:37:40;28.30;;;5.13;;
15102;SDS011;7652;53.584;9.998;2023-11-19T08:41:03;25.17;;;4.83;;
15102;SDS011;7652;53.584;9.998;2023-11-19T08:44:26;24.63;;;5.40;;
15102;SDS011;7652;53.584;9.998;2023-11-19T08:47:47;31.73;;;5.57;;
15102;SDS011;7652;53.584;9.998;2023-11-19T08:51:08;25.90;;;6.10;;
15102;SDS011;7652;53.584;9.998;2023-11-19T08:54:30;21.87;;;5.23;;
15102;SDS011;7652;53.584;9.998;2023-11-19T08:57:54;25.03;;;4.73;;
15102;SDS011;7652;53.584;9.998;2023-11-19T09:01:16;24.80;;;5.53;;
15102;SDS011;7652;53.584;9.998;2023-11-19T09:04:38;26.67;;;5.50;;
15102;SDS011;7652;53.584;9.998;2023-11-19T09:08:00;39.00;;;7.00;;
15102;SDS011;7652;53.584;9.998;2023-11-19T09:11:21;25.20;;;4.70;;
15102;SDS011;7652;53.584;9.998;2023-11-19T09:14:44;26.00;;;5.40;;
15102;SDS011;7652;53.584;9.998;2023-11-19T09:18:06;24.83;;;4.97;;
15102;SDS011;7652;53.584;9.998;2023-11-19T09:21:27;25.83;;;4.87;;
15102;SDS011;7652;53.584;9.998;2023-11-19T09:24:50;24.60;;;4.93;;
15102;SDS011;7652;53.584;9.998;2023-11-19T09:28:11;26.43;;;5.20;;
15102;SDS011;7652;53.584;9.998;2023-11-19T09:31:34;21.80;;;4.80;;
15102;SDS011;7652;53.584;9.998;2023-11-19T09:34:55;23.60;;;4.77;;
15102;SDS011;7652;53.584;9.998;2023-11-19T09:38:17;28.70;;;5.60;;
15102;SDS011;7652;53.584;9.998;2023-11-19T09:41:38;23.17;;;5.53;;
15102;SDS011;7652;53.584;9.998;2023-11-19T09:45:00;20.70;;;4.67;;
15102;SDS011;7652;53.584;9.998;2023-11-19T09:48:27;26.47;;;5.70;;
15102;SDS011;7652;53.584;9.998;2023-11-19T09:51:48;30.40;;;5.37;;
15102;SDS011;7652;53.584;9.998;2023-11-19T09:55:10;32.07;;;5.83;;
15102;SDS011;7652;53.584;9.998;2023-11-19T09:58:32;27.77;;;5.07;;
15102;SDS011;7652;53.584;9.998;2023-11-19T10:01:53;22.70;;;4.50;;
15102;SDS011;7652;53.584;9.998;2023-11-19T10:05:18;30.00;;;6.37;;
15102;SDS011;7652;53.584;9.998;2023-11-19T10:08:43;20.93;;;4.97;;
15102;SDS011;7652;53.584;9.998;2023-11-19T10:12:05;26.17;;;5.53;;
15102;SDS011;7652;53.584;9.998;2023-11-19T10:15:27;21.10;;;4.70;;
15102;SDS011;7652;53.584;9.998;2023-11-19T10:18:50;27.83;;;5.50;;
15102;SDS011;7652;53.584;9.998;2023-11-19T10:22:12;25.77;;;5.10;;
15102;SDS011;7652;53.584;9.998;2023-11-19T10:25:37;25.40;;;4.60;;
15102;SDS011;7652;53.584;9.998;2023-11-19T10:28:58;22.40;;;4.80;;
15102;SDS011;7652;53.584;9.998;2023-11-19T10:32:21;26.67;;;5.47;;
15102;SDS011;7652;53.584;9.998;2023-11-19T10:35:53;32.93;;;6.67;;
15102;SDS011;7652;53.584;9.998;2023-11-19T10:39:20;25.43;;;5.57;;
15102;SDS011;7652;53.584;9.998;2023-11-19T10:42:44;32.67;;;6.07;;
15102;SDS011;7652;53.584;9.998;2023-11-19T10:46:09;29.53;;;5.97;;
15102;SDS011;7652;53.584;9.998;2023-11-19T10:49:31;22.37;;;5.10;;
15102;SDS011;7652;53.584;9.998;2023-11-19T10:52:55;25.10;;;5.07;;
15102;SDS011;7652;53.584;9.998;2023-11-19T10:56:20;26.23;;;5.53;;
15102;SDS011;7652;53.584;9.998;2023-11-19T10:59:45;26.20;;;5.10;;
15102;SDS011;7652;53.584;9.998;2023-11-19T11:03:09;24.60;;;5.57;;
15102;SDS011;7652;53.584;9.998;2023-11-19T11:06:35;27.60;;;5.10;;
15102;SDS011;7652;53.584;9.998;2023-11-19T11:09:57;28.47;;;5.30;;
15102;SDS011;7652;53.584;9.998;2023-11-19T11:13:22;20.87;;;5.30;;
15102;SDS011;7652;53.584;9.998;2023-11-19T11:16:44;20.30;;;4.60;;
15102;SDS011;7652;53.584;9.998;2023-11-19T11:20:08;21.47;;;5.10;;
15102;SDS011;7652;53.584;9.998;2023-11-19T11:23:36;25.43;;;5.90;;
15102;SDS011;7652;53.584;9.998;2023-11-19T11:27:28;22.60;;;4.97;;
15102;SDS011;7652;53.584;9.998;2023-11-19T11:31:12;20.90;;;5.53;;
15102;SDS011;7652;53.584;9.998;2023-11-19T11:38:34;29.03;;;5.20;;
15102;SDS011;7652;53.584;9.998;2023-11-19T11:45:51;23.10;;;4.83;;
15102;SDS011;7652;53.584;9.998;2023-11-19T11:49:15;17.00;;;4.60;;
15102;SDS011;7652;53.584;9.998;2023-11-19T11:56:36;21.87;;;5.30;;
15102;SDS011;7652;53.584;9.998;2023-11-19T11:59:59;29.73;;;6.03;;
15102;SDS011;7652;53.584;9.998;2023-11-19T12:03:26;19.40;;;4.60;;
15102;SDS011;7652;53.584;9.998;2023-11-19T12:07:03;30.80;;;5.53;;
15102;SDS011;7652;53.584;9.998;2023-11-19T12:10:26;25.03;;;4.97;;
15102;SDS011;7652;53.584;9.998;2023-11-19T12:13:53;28.67;;;5.10;;
15102;SDS011;7652;53.584;9.998;2023-11-19T12:17:36;20.93;;;4.93;;
15102;SDS011;7652;53.584;9.998;2023-11-19T12:21:00;19.67;;;4.70;;
15102;SDS011;7652;53.584;9.998;2023-11-19T12:24:22;18.30;;;4.57;;
15102;SDS011;7652;53.584;9.998;2023-11-19T12:27:45;21.23;;;5.80;;
15102;SDS011;7652;53.584;9.998;2023-11-19T12:31:08;22.97;;;4.57;;
15102;SDS011;7652;53.584;9.998;2023-11-19T12:34:30;22.07;;;4.87;;
15102;SDS011;7652;53.584;9.998;2023-11-19T12:37:52;17.60;;;4.57;;
15102;SDS011;7652;53.584;9.998;2023-11-19T12:41:15;19.73;;;4.47;;
15102;SDS011;7652;53.584;9.998;2023-11-19T12:44:53;20.20;;;4.63;;
15102;SDS011;7652;53.584;9.998;2023-11-19T12:48:16;20.20;;;4.60;;
15102;SDS011;7652;53.584;9.998;2023-11-19T12:51:37;20.83;;;4.83;;
15102;SDS011;7652;53.584;9.998;2023-11-19T12:54:59;17.47;;;4.57;;
15102;SDS011;7652;53.584;9.998;2023-11-19T12:58:32;22.43;;;4.40;;
15102;SDS011;7652;53.584;9.998;2023-11-19T13:01:54;23.87;;;5.43;;
15102;SDS011;7652;53.584;9.998;2023-11-19T13:05:20;19.23;;;4.53;;
15102;SDS011;7652;53.584;9.998;2023-11-19T13:08:47;22.57;;;4.97;;
15102;SDS011;7652;53.584;9.998;2023-11-19T13:12:13;22.87;;;4.50;;
15102;SDS011;7652;53.584;9.998;2023-11-19T13:15:38;20.00;;;5.00;;
15102;SDS011;7652;53.584;9.998;2023-11-19T13:19:00;20.13;;;4.37;;
15102;SDS011;7652;53.584;9.998;2023-11-19T13:22:21;22.10;;;5.47;;
15102;SDS011;7652;53.584;9.998;2023-11-19T13:25:43;22.60;;;4.70;;
15102;SDS011;7652;53.584;9.998;2023-11-19T13:29:05;23.40;;;5.03;;
15102;SDS011;7652;53.584;9.998;2023-11-19T13:32:28;18.50;;;5.17;;
15102;SDS011;7652;53.584;9.998;2023-11-19T13:35:50;20.87;;;5.00;;
15102;SDS011;7652;53.584;9.998;2023-11-19T13:39:11;20.87;;;4.20;;
15102;SDS011;7652;53.584;9.998;2023-11-19T13:42:32;24.67;;;5.20;;
15102;SDS011;7652;53.584;9.998;2023-11-19T13:45:54;25.47;;;4.93;;
15102;SDS011;7652;53.584;9.998;2023-11-19T13:49:17;17.63;;;4.50;;
15102;SDS011;7652;53.584;9.998;2023-11-19T13:52:43;23.47;;;4.83;;
15102;SDS011;7652;53.584;9.998;2023-11-19T13:56:07;22.80;;;4.67;;
15102;SDS011;7652;53.584;9.998;2023-11-19T13:59:28;25.67;;;4.80;;
15102;SDS011;7652;53.584;9.998;2023-11-19T14:02:50;19.40;;;4.63;;
15102;SDS011;7652;53.584;9.998;2023-11-19T14:06:14;24.97;;;4.97;;
15102;SDS011;7652;53.584;9.998;2023-11-19T14:09:35;24.47;;;5.13;;
15102;SDS011;7652;53.584;9.998;2023-11-19T14:12:57;22.97;;;4.73;;
15102;SDS011;7652;53.584;9.998;2023-11-19T14:16:18;25.83;;;5.60;;
15102;SDS011;7652;53.584;9.998;2023-11-19T14:19:41;18.93;;;4.43;;
15102;SDS011;7652;53.584;9.998;2023-11-19T14:23:04;16.97;;;4.50;;
15102;SDS011;7652;53.584;9.998;2023-11-19T14:26:26;23.40;;;4.93;;
15102;SDS011;7652;53.584;9.998;2023-11-19T14:29:47;17.47;;;4.73;;
15102;SDS011;7652;53.584;9.998;2023-11-19T14:33:09;22.80;;;5.23;;
15102;SDS011;7652;53.584;9.998;2023-11-19T14:36:31;18.40;;;3.83;;
15102;SDS011;7652;53.584;9.998;2023-11-19T14:39:53;22.33;;;4.37;;
15102;SDS011;7652;53.584;9.998;2023-11-19T14:43:15;18.53;;;4.10;;
15102;SDS011;7652;53.584;9.998;2023-11-19T14:46:36;23.10;;;4.23;;
15102;SDS011;7652;53.584;9.998;2023-11-19T14:49:59;16.47;;;3.73;;
15102;SDS011;7652;53.584;9.998;2023-11-19T14:53:20;15.50;;;4.03;;
15102;SDS011;7652;53.584;9.998;2023-11-19T14:56:43;19.07;;;4.60;;
15102;SDS011;7652;53.584;9.998;2023-11-19T15:00:05;20.23;;;4.00;;
15102;SDS011;7652;53.584;9.998;2023-11-19T15:03:33;16.17;;;4.23;;
15102;SDS011;7652;53.584;9.998;2023-11-19T15:07:13;7.23;;;2.33;;
15102;SDS011;7652;53.584;9.998;2023-11-19T15:10:35;9.20;;;2.10;;
15102;SDS011;7652;53.584;9.998;2023-11-19T15:13:58;11.60;;;2.03;;
15102;SDS011;7652;53.584;9.998;2023-11-19T15:17:20;6.90;;;1.87;;
15102;SDS011;7652;53.584;9.998;2023-11-19T15:20:44;4.37;;;1.20;;
15102;SDS011;7652;53.584;9.998;2023-11-19T15:24:07;3.80;;;1.57;;
15102;SDS011;7652;53.584;9.998;2023-11-19T15:27:29;5.57;;;1.77;;
15102;SDS011;7652;53.584;9.998;2023-11-19T15:30:51;2.90;;;1.40;;
15102;SDS011;7652;53.584;9.998;2023-11-19T15:34:13;5.57;;;1.90;;
15102;SDS011;7652;53.584;9.998;2023-11-19T15:37:34;8.60;;;2.40;;
15102;SDS011;7652;53.584;9.998;2023-11-19T15:40:56;7.23;;;1.67;;
15102;SDS011;7652;53.584;9.998;2023-11-19T15:44:17;8.20;;;2.00;;
15102;SDS011;7652;53.584;9.998;2023-11-19T15:47:40;4.70;;;1.60;;
15102;SDS011;7652;53.584;9.998;2023-11-19T15:51:01;4.67;;;1.70;;
15102;SDS011;7652;53.584;9.998;2023-11-19T15:54:23;5.63;;;2.10;;
15102;SDS011;7652;53.584;9.998;2023-11-19T15:57:44;13.03;;;2.97;;
15102;SDS011;7652;53.584;9.998;2023-11-19T16:01:06;15.43;;;4.27;;
15102;SDS011;7652;53.584;9.998;2023-11-19T16:04:30;16.33;;;4.20;;
15102;SDS011;7652;53.584;9.998;2023-11-19T16:07:51;17.33;;;3.23;;
15102;SDS011;7652;53.584;9.998;2023-11-19T16:11:13;15.20;;;4.13;;
15102;SDS011;7652;53.584;9.998;2023-11-19T16:14:34;12.23;;;3.37;;
15102;SDS011;7652;53.584;9.998;2023-11-19T16:17:56;21.70;;;4.50;;
15102;SDS011;7652;53.584;9.998;2023-11-19T16:21:19;20.60;;;4.63;;
15102;SDS011;7652;53.584;9.998;2023-11-19T16:24:40;18.10;;;4.70;;
15102;SDS011;7652;53.584;9.998;2023-11-19T16:28:02;19.30;;;4.90;;
15102;SDS011;7652;53.584;9.998;2023-11-19T16:31:24;22.90;;;4.10;;
15102;SDS011;7652;53.584;9.998;2023-11-19T16:34:46;18.53;;;3.93;;
15102;SDS011;7652;53.584;9.998;2023-11-19T16:38:09;20.70;;;3.73;;
15102;SDS011;7652;53.584;9.998;2023-11-19T16:41:30;17.17;;;4.07;;
15102;SDS011;7652;53.584;9.998;2023-11-19T16:45:01;15.67;;;3.87;;
15102;SDS011;7652;53.584;9.998;2023-11-19T16:48:23;14.90;;;3.90;;
15102;SDS011;7652;53.584;9.998;2023-11-19T16:51:45;22.83;;;3.93;;
15102;SDS011;7652;53.584;9.998;2023-11-19T16:55:08;12.77;;;4.07;;
15102;SDS011;7652;53.584;9.998;2023-11-19T16:58:32;18.27;;;4.47;;
15102;SDS011;7652;53.584;9.998;2023-11-19T17:01:53;12.93;;;3.47;;
15102;SDS011;7652;53.584;9.998;2023-11-19T17:05:15;14.57;;;3.97;;
15102;SDS011;7652;53.584;9.998;2023-11-19T17:08:37;13.47;;;3.40;;
15102;SDS011;7652;53.584;9.998;2023-11-19T17:12:00;9.67;;;3.53;;
15102;SDS011;7652;53.584;9.998;2023-11-19T17:15:21;14.53;;;3.77;;
15102;SDS011;7652;53.584;9.998;2023-11-19T17:18:43;13.60;;;3.33;;
15102;SDS011;7652;53.584;9.998;2023-11-19T17:22:04;13.83;;;3.10;;
15102;SDS011;7652;53.584;9.998;2023-11-19T17:25:26;13.80;;;4.07;;
15102;SDS011;7652;53.584;9.998;2023-11-19T17:28:49;11.00;;;2.97;;
15102;SDS011;7652;53.584;9.998;2023-11-19T17:32:10;14.60;;;3.33;;
15102;SDS011;7652;53.584;9.998;2023-11-19T17:35:31;10.67;;;3.07;;
15102;SDS011;7652;53.584;9.998;2023-11-19T17:38:54;15.37;;;3.33;;
15102;SDS011;7652;53.584;9.998;2023-11-19T17:42:15;12.87;;;3.13;;
15102;SDS011;7652;53.584;9.998;2023-11-19T17:45:38;13.43;;;3.13;;
15102;SDS011;7652;53.584;9.998;2023-11-19T17:49:00;8.00;;;2.10;;
15102;SDS011;7652;53.584;9.998;2023-11-19T17:52:21;10.47;;;2.50;;
15102;SDS011;7652;53.584;9.998;2023-11-19T17:55:44;10.23;;;2.97;;
15102;SDS011;7652;53.584;9.998;2023-11-19T17:59:06;7.03;;;2.57;;
15102;SDS011;7652;53.584;9.998;2023-11-19T18:02:29;10.43;;;2.37;;
15102;SDS011;7652;53.584;9.998;2023-11-19T18:05:54;6.43;;;2.20;;
15102;SDS011;7652;53.584;9.998;2023-11-19T18:09:15;4.43;;;2.63;;
15102;SDS011;7652;53.584;9.998;2023-11-19T18:12:37;9.13;;;3.43;;
15102;SDS011;7652;53.584;9.998;2023-11-19T18:15:59;11.37;;;3.80;;
15102;SDS011;7652;53.584;9.998;2023-11-19T18:19:22;8.37;;;3.03;;
15102;SDS011;7652;53.584;9.998;2023-11-19T18:22:43;9.13;;;2.93;;
15102;SDS011;7652;53.584;9.998;2023-11-19T18:26:07;12.87;;;3.40;;
15102;SDS011;7652;53.584;9.998;2023-11-19T18:29:28;8.20;;;3.23;;
15102;SDS011;7652;53.584;9.998;2023-11-19T18:32:50;11.20;;;3.33;;
15102;SDS011;7652;53.584;9.998;2023-11-19T18:36:13;11.27;;;3.23;;
15102;SDS011;7652;53.584;9.998;2023-11-19T18:39:39;10.03;;;3.37;;
15102;SDS011;7652;53.584;9.998;2023-11-19T18:43:01;7.53;;;3.67;;
15102;SDS011;7652;53.584;9.998;2023-11-19T18:46:23;12.30;;;3.63;;
15102;SDS011;7652;53.584;9.998;2023-11-19T18:49:44;13.17;;;4.10;;
15102;SDS011;7652;53.584;9.998;2023-11-19T18:53:08;17.03;;;4.60;;
15102;SDS011;7652;53.584;9.998;2023-11-19T18:56:30;15.63;;;4.23;;
15102;SDS011;7652;53.584;9.998;2023-11-19T18:59:51;11.33;;;5.63;;
15102;SDS011;7652;53.584;9.998;2023-11-19T19:03:13;18.90;;;4.77;;
15102;SDS011;7652;53.584;9.998;2023-11-19T19:06:39;13.83;;;5.00;;
15102;SDS011;7652;53.584;9.998;2023-11-19T19:10:03;15.17;;;5.40;;
15102;SDS011;7652;53.584;9.998;2023-11-19T19:13:25;19.90;;;5.70;;
15102;SDS011;7652;53.584;9.998;2023-11-19T19:16:47;15.50;;;4.93;;
15102;SDS011;7652;53.584;9.998;2023-11-19T19:20:09;17.83;;;5.00;;
15102;SDS011;7652;53.584;9.998;2023-11-19T19:23:31;20.57;;;5.80;;
15102;SDS011;7652;53.584;9.998;2023-11-19T19:26:54;18.17;;;5.27;;
15102;SDS011;7652;53.584;9.998;2023-11-19T19:30:16;16.90;;;5.30;;
15102;SDS011;7652;53.584;9.998;2023-11-19T19:33:38;20.00;;;6.43;;
15102;SDS011;7652;53.584;9.998;2023-11-19T19:36:59;18.93;;;5.67;;
15102;SDS011;7652;53.584;9.998;2023-11-19T19:40:21;19.40;;;6.23;;
15102;SDS011;7652;53.584;9.998;2023-11-19T19:43:47;23.50;;;5.63;;
15102;SDS011;7652;53.584;9.998;2023-11-19T19:47:09;16.57;;;5.10;;
15102;SDS011;7652;53.584;9.998;2023-11-19T19:50:30;16.67;;;5.50;;
15102;SDS011;7652;53.584;9.998;2023-11-19T19:53:52;18.37;;;6.03;;
15102;SDS011;7652;53.584;9.998;2023-11-19T19:57:13;18.37;;;5.97;;
15102;SDS011;7652;53.584;9.998;2023-11-19T20:00:36;18.80;;;6.60;;
15102;SDS011;7652;53.584;9.998;2023-11-19T20:03:58;16.13;;;5.20;;
15102;SDS011;7652;53.584;9.998;2023-11-19T20:07:20;13.90;;;4.83;;
15102;SDS011;7652;53.584;9.998;2023-11-19T20:10:42;15.80;;;5.40;;
15102;SDS011;7652;53.584;9.998;2023-11-19T20:14:03;17.17;;;4.97;;
15102;SDS011;7652;53.584;9.998;2023-11-19T20:17:27;16.07;;;5.40;;
15102;SDS011;7652;53.584;9.998;2023-11-19T20:20:49;16.10;;;5.27;;
15102;SDS011;7652;53.584;9.998;2023-11-19T20:24:10;13.87;;;4.70;;
15102;SDS011;7652;53.584;9.998;2023-11-19T20:27:34;11.70;;;4.47;;
15102;SDS011;7652;53.584;9.998;2023-11-19T20:30:56;16.50;;;4.90;;
15102;SDS011;7652;53.584;9.998;2023-11-19T20:34:18;16.03;;;5.13;;
15102;SDS011;7652;53.584;9.998;2023-11-19T20:37:40;11.20;;;5.10;;